sensor_id;sensor_type;location;lat;lon;timestamp;P1;durP1;ratioP1;P2;durP2;ratioP2
26516;SDS011;14190;51.342;6.338;2023-05-16T00:02:26;10.03;;;4.25;;
26516;SDS011;14190;51.342;6.338;2023-05-16T00:04:54;9.85;;;4.58;;
26516;SDS011;14190;51.342;6.338;2023-05-16T00:07:21;19.87;;;5.00;;
26516;SDS011;14190;51.342;6.338;2023-05-16T00:09:48;12.58;;;3.67;;
26516;SDS011;14190;51.342;6.338;2023-05-16T00:12:16;9.93;;;4.58;;
26516;SDS011;14190;51.342;6.338;2023-05-16T00:14:45;11.20;;;4.35;;
26516;SDS011;14190;51.342;6.338;2023-05-16T00:17:13;14.10;;;4.25;;
26516;SDS011;14190;51.342;6.338;2023-05-16T00:19:42;16.35;;;4.62;;
26516;SDS011;14190;51.342;6.338;2023-05-16T00:22:10;15.53;;;3.70;;
26516;SDS011;14190;51.342;6.338;2023-05-16T00:24:37;17.82;;;4.53;;
26516;SDS011;14190;51.342;6.338;2023-05-16T00:27:04;14.65;;;4.60;;
26516;SDS011;14190;51.342;6.338;2023-05-16T00:29:33;11.03;;;4.17;;
26516;SDS011;14190;51.342;6.338;2023-05-16T00:32:01;12.63;;;4.75;;
26516;SDS011;14190;51.342;6.338;2023-05-16T00:34:28;14.80;;;4.75;;
26516;SDS011;14190;51.342;6.338;2023-05-16T00:36:55;18.02;;;5.03;;
26516;SDS011;14190;51.342;6.338;2023-05-16T00:39:23;12.60;;;4.30;;
26516;SDS011;14190;51.342;6.338;2023-05-16T00:41:50;14.20;;;4.97;;
26516;SDS011;14190;51.342;6.338;2023-05-16T00:44:18;14.53;;;5.28;;
26516;SDS011;14190;51.342;6.338;2023-05-16T00:46:46;23.35;;;5.42;;
26516;SDS011;14190;51.342;6.338;2023-05-16T00:49:13;16.85;;;4.58;;
26516;SDS011;14190;51.342;6.338;2023-05-16T00:51:41;18.55;;;4.95;;
26516;SDS011;14190;51.342;6.338;2023-05-16T00:54:08;14.75;;;4.70;;
26516;SDS011;14190;51.342;6.338;2023-05-16T00:56:36;21.15;;;5.47;;
26516;SDS011;14190;51.342;6.338;2023-05-16T00:59:04;17.45;;;4.47;;
26516;SDS011;14190;51.342;6.338;2023-05-16T01:01:33;27.13;;;5.50;;
26516;SDS011;14190;51.342;6.338;2023-05-16T01:04:02;20.35;;;4.72;;
26516;SDS011;14190;51.342;6.338;2023-05-16T01:06:29;17.32;;;5.55;;
26516;SDS011;14190;51.342;6.338;2023-05-16T01:08:57;16.37;;;4.25;;
26516;SDS011;14190;51.342;6.338;2023-05-16T01:11:27;24.82;;;5.22;;
26516;SDS011;14190;51.342;6.338;2023-05-16T01:16:25;18.55;;;4.28;;
26516;SDS011;14190;51.342;6.338;2023-05-16T01:24:29;20.02;;;4.85;;
26516;SDS011;14190;51.342;6.338;2023-05-16T01:26:55;23.10;;;5.40;;
26516;SDS011;14190;51.342;6.338;2023-05-16T01:29:25;19.57;;;4.97;;
26516;SDS011;14190;51.342;6.338;2023-05-16T01:31:53;24.72;;;5.95;;
26516;SDS011;14190;51.342;6.338;2023-05-16T01:34:20;18.50;;;4.78;;
26516;SDS011;14190;51.342;6.338;2023-05-16T01:39:28;16.48;;;4.97;;
26516;SDS011;14190;51.342;6.338;2023-05-16T01:44:32;34.08;;;6.58;;
26516;SDS011;14190;51.342;6.338;2023-05-16T01:47:00;21.35;;;5.75;;
26516;SDS011;14190;51.342;6.338;2023-05-16T01:49:35;23.38;;;6.17;;
26516;SDS011;14190;51.342;6.338;2023-05-16T01:52:04;24.98;;;4.75;;
26516;SDS011;14190;51.342;6.338;2023-05-16T01:54:32;26.27;;;4.60;;
26516;SDS011;14190;51.342;6.338;2023-05-16T01:57:01;26.85;;;5.45;;
26516;SDS011;14190;51.342;6.338;2023-05-16T01:59:30;20.52;;;4.75;;
26516;SDS011;14190;51.342;6.338;2023-05-16T02:01:58;20.05;;;6.05;;
26516;SDS011;14190;51.342;6.338;2023-05-16T02:04:26;19.73;;;5.05;;
26516;SDS011;14190;51.342;6.338;2023-05-16T02:06:53;26.57;;;5.87;;
26516;SDS011;14190;51.342;6.338;2023-05-16T02:09:20;24.85;;;4.70;;
26516;SDS011;14190;51.342;6.338;2023-05-16T02:11:48;24.02;;;5.00;;
26516;SDS011;14190;51.342;6.338;2023-05-16T02:14:15;26.02;;;5.20;;
26516;SDS011;14190;51.342;6.338;2023-05-16T02:16:43;25.20;;;5.45;;
26516;SDS011;14190;51.342;6.338;2023-05-16T02:19:10;23.95;;;5.12;;
26516;SDS011;14190;51.342;6.338;2023-05-16T02:21:38;15.88;;;5.12;;
26516;SDS011;14190;51.342;6.338;2023-05-16T02:24:05;25.25;;;4.83;;
26516;SDS011;14190;51.342;6.338;2023-05-16T02:26:32;30.27;;;4.83;;
26516;SDS011;14190;51.342;6.338;2023-05-16T02:29:00;21.30;;;4.58;;
26516;SDS011;14190;51.342;6.338;2023-05-16T02:31:30;23.10;;;4.78;;
26516;SDS011;14190;51.342;6.338;2023-05-16T02:33:58;23.18;;;5.37;;
26516;SDS011;14190;51.342;6.338;2023-05-16T02:36:26;25.97;;;5.17;;
26516;SDS011;14190;51.342;6.338;2023-05-16T02:38:53;20.23;;;4.85;;
26516;SDS011;14190;51.342;6.338;2023-05-16T02:41:21;28.87;;;4.42;;
26516;SDS011;14190;51.342;6.338;2023-05-16T02:43:48;22.00;;;3.92;;
26516;SDS011;14190;51.342;6.338;2023-05-16T02:46:22;28.73;;;5.33;;
26516;SDS011;14190;51.342;6.338;2023-05-16T02:48:50;14.98;;;4.22;;
26516;SDS011;14190;51.342;6.338;2023-05-16T02:51:18;23.07;;;4.03;;
26516;SDS011;14190;51.342;6.338;2023-05-16T02:53:46;35.52;;;5.45;;
26516;SDS011;14190;51.342;6.338;2023-05-16T02:56:13;22.13;;;4.40;;
26516;SDS011;14190;51.342;6.338;2023-05-16T02:58:41;26.10;;;4.65;;
26516;SDS011;14190;51.342;6.338;2023-05-16T03:01:08;23.75;;;3.50;;
26516;SDS011;14190;51.342;6.338;2023-05-16T03:03:36;33.85;;;3.80;;
26516;SDS011;14190;51.342;6.338;2023-05-16T03:06:03;13.68;;;4.15;;
26516;SDS011;14190;51.342;6.338;2023-05-16T03:08:32;26.05;;;4.42;;
26516;SDS011;14190;51.342;6.338;2023-05-16T03:11:00;30.45;;;4.97;;
26516;SDS011;14190;51.342;6.338;2023-05-16T03:13:28;21.68;;;4.97;;
26516;SDS011;14190;51.342;6.338;2023-05-16T03:15:57;20.82;;;3.77;;
26516;SDS011;14190;51.342;6.338;2023-05-16T03:18:25;27.32;;;3.75;;
26516;SDS011;14190;51.342;6.338;2023-05-16T03:20:52;25.82;;;4.45;;
26516;SDS011;14190;51.342;6.338;2023-05-16T03:23:22;22.73;;;3.58;;
26516;SDS011;14190;51.342;6.338;2023-05-16T03:25:49;25.08;;;4.53;;
26516;SDS011;14190;51.342;6.338;2023-05-16T03:28:18;22.02;;;4.03;;
26516;SDS011;14190;51.342;6.338;2023-05-16T03:30:46;27.07;;;4.37;;
26516;SDS011;14190;51.342;6.338;2023-05-16T03:33:13;28.02;;;4.22;;
26516;SDS011;14190;51.342;6.338;2023-05-16T03:35:41;18.23;;;3.85;;
26516;SDS011;14190;51.342;6.338;2023-05-16T03:38:09;23.52;;;4.17;;
26516;SDS011;14190;51.342;6.338;2023-05-16T03:40:36;20.55;;;3.98;;
26516;SDS011;14190;51.342;6.338;2023-05-16T03:43:04;23.38;;;3.58;;
26516;SDS011;14190;51.342;6.338;2023-05-16T03:45:31;17.57;;;3.90;;
26516;SDS011;14190;51.342;6.338;2023-05-16T03:47:59;28.95;;;3.65;;
26516;SDS011;14190;51.342;6.338;2023-05-16T03:50:26;18.30;;;3.90;;
26516;SDS011;14190;51.342;6.338;2023-05-16T03:52:54;27.30;;;4.53;;
26516;SDS011;14190;51.342;6.338;2023-05-16T03:55:21;23.38;;;4.70;;
26516;SDS011;14190;51.342;6.338;2023-05-16T03:57:49;21.48;;;4.67;;
26516;SDS011;14190;51.342;6.338;2023-05-16T04:00:17;27.75;;;4.33;;
26516;SDS011;14190;51.342;6.338;2023-05-16T04:02:45;20.92;;;3.92;;
26516;SDS011;14190;51.342;6.338;2023-05-16T04:05:12;21.90;;;4.22;;
26516;SDS011;14190;51.342;6.338;2023-05-16T04:07:39;23.02;;;4.47;;
26516;SDS011;14190;51.342;6.338;2023-05-16T04:10:07;25.75;;;4.92;;
26516;SDS011;14190;51.342;6.338;2023-05-16T04:12:35;24.85;;;3.55;;
26516;SDS011;14190;51.342;6.338;2023-05-16T04:15:05;14.43;;;2.85;;
26516;SDS011;14190;51.342;6.338;2023-05-16T04:17:33;20.50;;;3.87;;
26516;SDS011;14190;51.342;6.338;2023-05-16T04:20:01;23.62;;;3.65;;
26516;SDS011;14190;51.342;6.338;2023-05-16T04:22:30;23.15;;;3.52;;
26516;SDS011;14190;51.342;6.338;2023-05-16T04:24:57;16.30;;;3.33;;
26516;SDS011;14190;51.342;6.338;2023-05-16T04:27:25;16.05;;;3.98;;
26516;SDS011;14190;51.342;6.338;2023-05-16T04:29:52;16.00;;;3.33;;
26516;SDS011;14190;51.342;6.338;2023-05-16T04:32:19;26.95;;;4.50;;
26516;SDS011;14190;51.342;6.338;2023-05-16T04:34:47;18.65;;;4.08;;
26516;SDS011;14190;51.342;6.338;2023-05-16T04:37:16;26.42;;;3.55;;
26516;SDS011;14190;51.342;6.338;2023-05-16T04:39:43;27.52;;;4.42;;
26516;SDS011;14190;51.342;6.338;2023-05-16T04:42:12;20.00;;;3.90;;
26516;SDS011;14190;51.342;6.338;2023-05-16T04:44:39;17.73;;;3.85;;
26516;SDS011;14190;51.342;6.338;2023-05-16T04:47:07;30.15;;;3.72;;
26516;SDS011;14190;51.342;6.338;2023-05-16T04:49:35;24.57;;;3.47;;
26516;SDS011;14190;51.342;6.338;2023-05-16T04:52:02;29.35;;;3.90;;
26516;SDS011;14190;51.342;6.338;2023-05-16T04:54:29;24.82;;;4.12;;
26516;SDS011;14190;51.342;6.338;2023-05-16T04:56:57;19.57;;;3.80;;
26516;SDS011;14190;51.342;6.338;2023-05-16T04:59:24;20.17;;;3.37;;
26516;SDS011;14190;51.342;6.338;2023-05-16T05:01:51;19.05;;;3.87;;
26516;SDS011;14190;51.342;6.338;2023-05-16T05:04:19;21.15;;;3.83;;
26516;SDS011;14190;51.342;6.338;2023-05-16T05:06:48;20.10;;;4.42;;
26516;SDS011;14190;51.342;6.338;2023-05-16T05:09:15;20.55;;;3.85;;
26516;SDS011;14190;51.342;6.338;2023-05-16T05:11:43;23.67;;;3.87;;
26516;SDS011;14190;51.342;6.338;2023-05-16T05:14:10;18.65;;;3.80;;
26516;SDS011;14190;51.342;6.338;2023-05-16T05:16:37;11.78;;;3.15;;
26516;SDS011;14190;51.342;6.338;2023-05-16T05:19:05;24.63;;;4.45;;
26516;SDS011;14190;51.342;6.338;2023-05-16T05:21:34;18.80;;;3.42;;
26516;SDS011;14190;51.342;6.338;2023-05-16T05:24:01;17.73;;;4.10;;
26516;SDS011;14190;51.342;6.338;2023-05-16T05:26:29;14.18;;;3.47;;
26516;SDS011;14190;51.342;6.338;2023-05-16T05:28:57;33.40;;;4.83;;
26516;SDS011;14190;51.342;6.338;2023-05-16T05:31:24;20.65;;;3.15;;
26516;SDS011;14190;51.342;6.338;2023-05-16T05:33:52;21.00;;;3.98;;
26516;SDS011;14190;51.342;6.338;2023-05-16T05:36:20;15.95;;;3.83;;
26516;SDS011;14190;51.342;6.338;2023-05-16T05:38:47;21.02;;;3.65;;
26516;SDS011;14190;51.342;6.338;2023-05-16T05:41:14;28.98;;;3.85;;
26516;SDS011;14190;51.342;6.338;2023-05-16T05:43:42;18.15;;;3.52;;
26516;SDS011;14190;51.342;6.338;2023-05-16T05:46:10;20.00;;;4.22;;
26516;SDS011;14190;51.342;6.338;2023-05-16T05:48:37;23.67;;;4.33;;
26516;SDS011;14190;51.342;6.338;2023-05-16T05:51:05;20.82;;;3.77;;
26516;SDS011;14190;51.342;6.338;2023-05-16T05:53:32;18.02;;;3.58;;
26516;SDS011;14190;51.342;6.338;2023-05-16T05:56:00;18.75;;;3.12;;
26516;SDS011;14190;51.342;6.338;2023-05-16T05:58:27;22.95;;;4.28;;
26516;SDS011;14190;51.342;6.338;2023-05-16T06:00:54;16.70;;;3.77;;
26516;SDS011;14190;51.342;6.338;2023-05-16T06:03:22;16.77;;;3.02;;
26516;SDS011;14190;51.342;6.338;2023-05-16T06:05:49;19.60;;;3.67;;
26516;SDS011;14190;51.342;6.338;2023-05-16T06:08:17;18.30;;;4.30;;
26516;SDS011;14190;51.342;6.338;2023-05-16T06:10:46;20.17;;;3.52;;
26516;SDS011;14190;51.342;6.338;2023-05-16T06:13:13;17.77;;;4.10;;
26516;SDS011;14190;51.342;6.338;2023-05-16T06:15:41;13.30;;;2.87;;
26516;SDS011;14190;51.342;6.338;2023-05-16T06:18:08;16.10;;;3.42;;
26516;SDS011;14190;51.342;6.338;2023-05-16T06:20:35;13.28;;;2.77;;
26516;SDS011;14190;51.342;6.338;2023-05-16T06:23:03;27.05;;;3.50;;
26516;SDS011;14190;51.342;6.338;2023-05-16T06:25:30;22.80;;;3.83;;
26516;SDS011;14190;51.342;6.338;2023-05-16T06:27:58;18.67;;;3.20;;
26516;SDS011;14190;51.342;6.338;2023-05-16T06:30:25;17.98;;;3.22;;
26516;SDS011;14190;51.342;6.338;2023-05-16T06:32:52;16.25;;;3.35;;
26516;SDS011;14190;51.342;6.338;2023-05-16T06:35:20;13.00;;;3.12;;
26516;SDS011;14190;51.342;6.338;2023-05-16T06:37:47;11.20;;;3.05;;
26516;SDS011;14190;51.342;6.338;2023-05-16T06:40:14;19.90;;;3.22;;
26516;SDS011;14190;51.342;6.338;2023-05-16T06:42:42;17.37;;;3.40;;
26516;SDS011;14190;51.342;6.338;2023-05-16T06:45:11;22.95;;;3.55;;
26516;SDS011;14190;51.342;6.338;2023-05-16T06:47:38;18.23;;;3.72;;
26516;SDS011;14190;51.342;6.338;2023-05-16T06:50:06;13.68;;;3.08;;
26516;SDS011;14190;51.342;6.338;2023-05-16T06:52:33;22.22;;;3.22;;
26516;SDS011;14190;51.342;6.338;2023-05-16T06:55:01;20.85;;;3.83;;
26516;SDS011;14190;51.342;6.338;2023-05-16T06:57:29;18.35;;;3.58;;
26516;SDS011;14190;51.342;6.338;2023-05-16T06:59:56;20.10;;;3.80;;
26516;SDS011;14190;51.342;6.338;2023-05-16T07:02:24;17.07;;;3.30;;
26516;SDS011;14190;51.342;6.338;2023-05-16T07:04:51;15.40;;;3.00;;
26516;SDS011;14190;51.342;6.338;2023-05-16T07:07:19;11.78;;;2.83;;
26516;SDS011;14190;51.342;6.338;2023-05-16T07:09:46;17.00;;;2.72;;
26516;SDS011;14190;51.342;6.338;2023-05-16T07:12:13;15.13;;;3.30;;
26516;SDS011;14190;51.342;6.338;2023-05-16T07:14:41;18.92;;;2.92;;
26516;SDS011;14190;51.342;6.338;2023-05-16T07:17:09;20.30;;;2.85;;
26516;SDS011;14190;51.342;6.338;2023-05-16T07:19:37;11.80;;;2.55;;
26516;SDS011;14190;51.342;6.338;2023-05-16T07:22:04;16.10;;;3.27;;
26516;SDS011;14190;51.342;6.338;2023-05-16T07:24:31;24.90;;;3.60;;
26516;SDS011;14190;51.342;6.338;2023-05-16T07:26:59;16.62;;;3.05;;
26516;SDS011;14190;51.342;6.338;2023-05-16T07:29:26;15.23;;;2.60;;
26516;SDS011;14190;51.342;6.338;2023-05-16T07:31:55;12.73;;;2.70;;
26516;SDS011;14190;51.342;6.338;2023-05-16T07:34:22;13.00;;;2.58;;
26516;SDS011;14190;51.342;6.338;2023-05-16T07:36:50;12.68;;;2.70;;
26516;SDS011;14190;51.342;6.338;2023-05-16T07:39:17;15.88;;;3.77;;
26516;SDS011;14190;51.342;6.338;2023-05-16T07:41:45;20.17;;;3.42;;
26516;SDS011;14190;51.342;6.338;2023-05-16T07:44:12;14.75;;;2.58;;
26516;SDS011;14190;51.342;6.338;2023-05-16T07:46:39;21.02;;;3.05;;
26516;SDS011;14190;51.342;6.338;2023-05-16T07:49:08;13.28;;;3.62;;
26516;SDS011;14190;51.342;6.338;2023-05-16T07:51:36;15.20;;;2.67;;
26516;SDS011;14190;51.342;6.338;2023-05-16T07:54:03;26.12;;;3.02;;
26516;SDS011;14190;51.342;6.338;2023-05-16T07:56:31;10.82;;;2.22;;
26516;SDS011;14190;51.342;6.338;2023-05-16T07:58:58;13.75;;;2.67;;
26516;SDS011;14190;51.342;6.338;2023-05-16T08:01:25;11.73;;;3.25;;
26516;SDS011;14190;51.342;6.338;2023-05-16T08:03:53;18.85;;;3.20;;
26516;SDS011;14190;51.342;6.338;2023-05-16T08:06:20;10.95;;;2.62;;
26516;SDS011;14190;51.342;6.338;2023-05-16T08:08:47;10.82;;;3.05;;
26516;SDS011;14190;51.342;6.338;2023-05-16T08:11:15;14.23;;;3.12;;
26516;SDS011;14190;51.342;6.338;2023-05-16T08:13:42;17.98;;;2.58;;
26516;SDS011;14190;51.342;6.338;2023-05-16T08:16:10;14.43;;;2.90;;
26516;SDS011;14190;51.342;6.338;2023-05-16T08:18:37;12.13;;;3.47;;
26516;SDS011;14190;51.342;6.338;2023-05-16T08:21:05;12.58;;;2.60;;
26516;SDS011;14190;51.342;6.338;2023-05-16T08:23:32;14.80;;;2.67;;
26516;SDS011;14190;51.342;6.338;2023-05-16T08:26:00;10.08;;;3.02;;
26516;SDS011;14190;51.342;6.338;2023-05-16T08:28:27;14.23;;;2.77;;
26516;SDS011;14190;51.342;6.338;2023-05-16T08:30:55;14.10;;;2.75;;
26516;SDS011;14190;51.342;6.338;2023-05-16T08:33:22;10.28;;;2.15;;
26516;SDS011;14190;51.342;6.338;2023-05-16T08:35:50;18.42;;;2.60;;
26516;SDS011;14190;51.342;6.338;2023-05-16T08:38:18;7.65;;;2.25;;
26516;SDS011;14190;51.342;6.338;2023-05-16T08:40:46;16.42;;;3.17;;
26516;SDS011;14190;51.342;6.338;2023-05-16T08:43:13;9.13;;;2.65;;
26516;SDS011;14190;51.342;6.338;2023-05-16T08:45:41;10.40;;;2.12;;
26516;SDS011;14190;51.342;6.338;2023-05-16T08:48:09;12.65;;;2.35;;
26516;SDS011;14190;51.342;6.338;2023-05-16T08:50:37;12.47;;;2.70;;
26516;SDS011;14190;51.342;6.338;2023-05-16T08:53:05;14.85;;;2.83;;
26516;SDS011;14190;51.342;6.338;2023-05-16T08:55:33;11.35;;;2.45;;
26516;SDS011;14190;51.342;6.338;2023-05-16T08:58:01;10.20;;;2.52;;
26516;SDS011;14190;51.342;6.338;2023-05-16T09:00:29;7.40;;;2.22;;
26516;SDS011;14190;51.342;6.338;2023-05-16T09:02:57;11.22;;;2.42;;
26516;SDS011;14190;51.342;6.338;2023-05-16T09:05:24;10.43;;;1.95;;
26516;SDS011;14190;51.342;6.338;2023-05-16T09:07:52;12.25;;;1.98;;
26516;SDS011;14190;51.342;6.338;2023-05-16T09:10:19;11.38;;;2.02;;
26516;SDS011;14190;51.342;6.338;2023-05-16T09:12:47;12.70;;;1.65;;
26516;SDS011;14190;51.342;6.338;2023-05-16T09:15:16;8.58;;;1.60;;
26516;SDS011;14190;51.342;6.338;2023-05-16T09:17:44;11.38;;;2.83;;
26516;SDS011;14190;51.342;6.338;2023-05-16T09:20:12;8.00;;;1.95;;
26516;SDS011;14190;51.342;6.338;2023-05-16T09:22:40;8.80;;;2.05;;
26516;SDS011;14190;51.342;6.338;2023-05-16T09:25:08;10.15;;;2.33;;
26516;SDS011;14190;51.342;6.338;2023-05-16T09:27:37;14.10;;;2.67;;
26516;SDS011;14190;51.342;6.338;2023-05-16T09:30:05;4.45;;;1.80;;
26516;SDS011;14190;51.342;6.338;2023-05-16T09:32:32;3.62;;;1.47;;
26516;SDS011;14190;51.342;6.338;2023-05-16T09:35:00;6.12;;;1.77;;
26516;SDS011;14190;51.342;6.338;2023-05-16T09:37:27;10.72;;;2.33;;
26516;SDS011;14190;51.342;6.338;2023-05-16T09:39:56;16.77;;;3.15;;
26516;SDS011;14190;51.342;6.338;2023-05-16T09:42:24;22.35;;;3.50;;
26516;SDS011;14190;51.342;6.338;2023-05-16T09:44:51;15.85;;;3.42;;
26516;SDS011;14190;51.342;6.338;2023-05-16T09:47:20;12.73;;;2.65;;
26516;SDS011;14190;51.342;6.338;2023-05-16T09:49:51;13.08;;;2.42;;
26516;SDS011;14190;51.342;6.338;2023-05-16T09:52:19;9.38;;;2.02;;
26516;SDS011;14190;51.342;6.338;2023-05-16T09:54:46;9.75;;;2.10;;
26516;SDS011;14190;51.342;6.338;2023-05-16T09:57:18;15.45;;;3.08;;
26516;SDS011;14190;51.342;6.338;2023-05-16T09:59:45;10.43;;;2.37;;
26516;SDS011;14190;51.342;6.338;2023-05-16T10:02:13;7.08;;;2.05;;
26516;SDS011;14190;51.342;6.338;2023-05-16T10:04:40;11.68;;;1.72;;
26516;SDS011;14190;51.342;6.338;2023-05-16T10:07:08;8.33;;;1.62;;
26516;SDS011;14190;51.342;6.338;2023-05-16T10:09:36;6.90;;;1.85;;
26516;SDS011;14190;51.342;6.338;2023-05-16T10:12:06;6.78;;;1.55;;
26516;SDS011;14190;51.342;6.338;2023-05-16T10:14:35;11.97;;;2.12;;
26516;SDS011;14190;51.342;6.338;2023-05-16T10:17:03;7.20;;;2.08;;
26516;SDS011;14190;51.342;6.338;2023-05-16T10:19:35;11.97;;;1.90;;
26516;SDS011;14190;51.342;6.338;2023-05-16T10:22:03;9.98;;;1.82;;
26516;SDS011;14190;51.342;6.338;2023-05-16T10:27:17;11.05;;;2.17;;
26516;SDS011;14190;51.342;6.338;2023-05-16T10:29:45;7.92;;;1.98;;
26516;SDS011;14190;51.342;6.338;2023-05-16T10:32:12;9.20;;;2.00;;
26516;SDS011;14190;51.342;6.338;2023-05-16T10:34:39;5.40;;;1.72;;
26516;SDS011;14190;51.342;6.338;2023-05-16T10:37:08;7.65;;;1.90;;
26516;SDS011;14190;51.342;6.338;2023-05-16T10:39:35;8.93;;;2.12;;
26516;SDS011;14190;51.342;6.338;2023-05-16T10:42:04;7.22;;;2.12;;
26516;SDS011;14190;51.342;6.338;2023-05-16T10:44:32;8.15;;;1.47;;
26516;SDS011;14190;51.342;6.338;2023-05-16T10:47:00;6.83;;;1.60;;
26516;SDS011;14190;51.342;6.338;2023-05-16T10:49:29;10.15;;;1.65;;
26516;SDS011;14190;51.342;6.338;2023-05-16T10:52:04;5.45;;;2.00;;
26516;SDS011;14190;51.342;6.338;2023-05-16T10:54:33;7.53;;;1.90;;
26516;SDS011;14190;51.342;6.338;2023-05-16T10:57:03;6.37;;;1.42;;
26516;SDS011;14190;51.342;6.338;2023-05-16T10:59:38;12.85;;;3.83;;
26516;SDS011;14190;51.342;6.338;2023-05-16T11:02:00;12.63;;;1.85;;
26516;SDS011;14190;51.342;6.338;2023-05-16T11:04:44;6.85;;;1.85;;
26516;SDS011;14190;51.342;6.338;2023-05-16T11:06:56;6.33;;;1.62;;
26516;SDS011;14190;51.342;6.338;2023-05-16T11:09:25;5.67;;;1.72;;
26516;SDS011;14190;51.342;6.338;2023-05-16T11:12:02;6.75;;;2.12;;
26516;SDS011;14190;51.342;6.338;2023-05-16T11:17:09;6.30;;;1.62;;
26516;SDS011;14190;51.342;6.338;2023-05-16T11:19:47;8.40;;;1.87;;
26516;SDS011;14190;51.342;6.338;2023-05-16T11:24:53;7.78;;;1.55;;
26516;SDS011;14190;51.342;6.338;2023-05-16T11:27:22;8.65;;;1.72;;
26516;SDS011;14190;51.342;6.338;2023-05-16T11:29:51;4.30;;;1.52;;
26516;SDS011;14190;51.342;6.338;2023-05-16T11:32:19;7.95;;;1.90;;
26516;SDS011;14190;51.342;6.338;2023-05-16T11:34:48;5.47;;;1.62;;
26516;SDS011;14190;51.342;6.338;2023-05-16T11:37:15;3.08;;;1.00;;
26516;SDS011;14190;51.342;6.338;2023-05-16T11:39:43;6.62;;;1.57;;
26516;SDS011;14190;51.342;6.338;2023-05-16T11:42:11;4.92;;;1.50;;
26516;SDS011;14190;51.342;6.338;2023-05-16T11:44:38;8.88;;;1.40;;
26516;SDS011;14190;51.342;6.338;2023-05-16T11:47:07;3.90;;;1.40;;
26516;SDS011;14190;51.342;6.338;2023-05-16T11:49:34;7.90;;;1.45;;
26516;SDS011;14190;51.342;6.338;2023-05-16T11:52:02;5.25;;;1.45;;
26516;SDS011;14190;51.342;6.338;2023-05-16T11:54:30;5.67;;;1.65;;
26516;SDS011;14190;51.342;6.338;2023-05-16T11:56:57;7.40;;;1.72;;
26516;SDS011;14190;51.342;6.338;2023-05-16T11:59:25;2.98;;;1.37;;
26516;SDS011;14190;51.342;6.338;2023-05-16T12:01:52;8.08;;;2.08;;
26516;SDS011;14190;51.342;6.338;2023-05-16T12:04:19;6.87;;;2.40;;
26516;SDS011;14190;51.342;6.338;2023-05-16T12:06:56;2.40;;;1.20;;
26516;SDS011;14190;51.342;6.338;2023-05-16T12:09:17;6.87;;;1.37;;
26516;SDS011;14190;51.342;6.338;2023-05-16T12:11:44;7.95;;;1.72;;
26516;SDS011;14190;51.342;6.338;2023-05-16T12:14:11;11.12;;;2.45;;
26516;SDS011;14190;51.342;6.338;2023-05-16T12:16:39;3.90;;;1.60;;
26516;SDS011;14190;51.342;6.338;2023-05-16T12:19:09;5.87;;;1.37;;
26516;SDS011;14190;51.342;6.338;2023-05-16T12:21:37;6.50;;;1.47;;
26516;SDS011;14190;51.342;6.338;2023-05-16T12:24:07;8.55;;;1.70;;
26516;SDS011;14190;51.342;6.338;2023-05-16T12:26:34;10.28;;;1.50;;
26516;SDS011;14190;51.342;6.338;2023-05-16T12:29:02;4.78;;;1.50;;
26516;SDS011;14190;51.342;6.338;2023-05-16T12:31:35;6.25;;;1.70;;
26516;SDS011;14190;51.342;6.338;2023-05-16T12:34:00;6.25;;;1.30;;
26516;SDS011;14190;51.342;6.338;2023-05-16T12:36:30;4.20;;;1.70;;
26516;SDS011;14190;51.342;6.338;2023-05-16T12:38:59;6.62;;;1.92;;
26516;SDS011;14190;51.342;6.338;2023-05-16T12:41:26;3.70;;;1.40;;
26516;SDS011;14190;51.342;6.338;2023-05-16T12:44:05;3.45;;;1.27;;
26516;SDS011;14190;51.342;6.338;2023-05-16T12:46:22;3.90;;;1.10;;
26516;SDS011;14190;51.342;6.338;2023-05-16T12:48:57;8.13;;;1.72;;
26516;SDS011;14190;51.342;6.338;2023-05-16T12:51:20;5.67;;;2.00;;
26516;SDS011;14190;51.342;6.338;2023-05-16T12:53:48;6.97;;;1.77;;
26516;SDS011;14190;51.342;6.338;2023-05-16T12:56:16;12.20;;;1.82;;
26516;SDS011;14190;51.342;6.338;2023-05-16T12:58:43;6.83;;;1.35;;
26516;SDS011;14190;51.342;6.338;2023-05-16T13:01:11;6.95;;;1.90;;
26516;SDS011;14190;51.342;6.338;2023-05-16T13:03:38;8.00;;;1.60;;
26516;SDS011;14190;51.342;6.338;2023-05-16T13:06:05;5.95;;;1.65;;
26516;SDS011;14190;51.342;6.338;2023-05-16T13:08:34;6.62;;;2.15;;
26516;SDS011;14190;51.342;6.338;2023-05-16T13:11:01;6.92;;;2.15;;
26516;SDS011;14190;51.342;6.338;2023-05-16T13:13:29;6.15;;;1.67;;
26516;SDS011;14190;51.342;6.338;2023-05-16T13:15:56;9.15;;;1.77;;
26516;SDS011;14190;51.342;6.338;2023-05-16T13:18:24;5.97;;;1.62;;
26516;SDS011;14190;51.342;6.338;2023-05-16T13:20:52;6.10;;;1.22;;
26516;SDS011;14190;51.342;6.338;2023-05-16T13:23:19;9.95;;;1.30;;
26516;SDS011;14190;51.342;6.338;2023-05-16T13:25:47;6.17;;;1.65;;
26516;SDS011;14190;51.342;6.338;2023-05-16T13:28:14;4.55;;;1.92;;
26516;SDS011;14190;51.342;6.338;2023-05-16T13:30:41;6.50;;;2.17;;
26516;SDS011;14190;51.342;6.338;2023-05-16T13:33:09;6.37;;;2.02;;
26516;SDS011;14190;51.342;6.338;2023-05-16T13:35:37;6.42;;;2.08;;
26516;SDS011;14190;51.342;6.338;2023-05-16T13:38:05;5.75;;;1.67;;
26516;SDS011;14190;51.342;6.338;2023-05-16T13:40:32;4.37;;;1.30;;
26516;SDS011;14190;51.342;6.338;2023-05-16T13:43:00;4.67;;;1.47;;
26516;SDS011;14190;51.342;6.338;2023-05-16T13:45:28;8.93;;;2.02;;
26516;SDS011;14190;51.342;6.338;2023-05-16T13:47:56;7.33;;;1.80;;
26516;SDS011;14190;51.342;6.338;2023-05-16T13:50:24;6.33;;;1.75;;
26516;SDS011;14190;51.342;6.338;2023-05-16T13:52:51;8.58;;;1.87;;
26516;SDS011;14190;51.342;6.338;2023-05-16T13:55:18;5.22;;;1.62;;
26516;SDS011;14190;51.342;6.338;2023-05-16T13:57:46;7.62;;;2.72;;
26516;SDS011;14190;51.342;6.338;2023-05-16T14:00:13;5.72;;;1.67;;
26516;SDS011;14190;51.342;6.338;2023-05-16T14:02:41;8.83;;;2.00;;
26516;SDS011;14190;51.342;6.338;2023-05-16T14:05:08;3.65;;;1.95;;
26516;SDS011;14190;51.342;6.338;2023-05-16T14:07:36;7.20;;;1.90;;
26516;SDS011;14190;51.342;6.338;2023-05-16T14:10:03;5.58;;;2.00;;
26516;SDS011;14190;51.342;6.338;2023-05-16T14:12:32;7.35;;;2.45;;
26516;SDS011;14190;51.342;6.338;2023-05-16T14:14:59;5.58;;;2.10;;
26516;SDS011;14190;51.342;6.338;2023-05-16T14:17:26;7.97;;;1.82;;
26516;SDS011;14190;51.342;6.338;2023-05-16T14:19:54;6.67;;;1.92;;
26516;SDS011;14190;51.342;6.338;2023-05-16T14:22:21;5.20;;;2.20;;
26516;SDS011;14190;51.342;6.338;2023-05-16T14:24:48;5.53;;;1.80;;
26516;SDS011;14190;51.342;6.338;2023-05-16T14:27:16;6.83;;;1.92;;
26516;SDS011;14190;51.342;6.338;2023-05-16T14:29:48;4.17;;;1.60;;
26516;SDS011;14190;51.342;6.338;2023-05-16T14:32:14;3.60;;;1.82;;
26516;SDS011;14190;51.342;6.338;2023-05-16T14:34:41;8.73;;;2.25;;
26516;SDS011;14190;51.342;6.338;2023-05-16T14:37:08;9.68;;;1.85;;
26516;SDS011;14190;51.342;6.338;2023-05-16T14:39:36;7.67;;;1.80;;
26516;SDS011;14190;51.342;6.338;2023-05-16T14:42:04;6.90;;;1.80;;
26516;SDS011;14190;51.342;6.338;2023-05-16T14:44:31;5.72;;;1.35;;
26516;SDS011;14190;51.342;6.338;2023-05-16T14:46:59;5.53;;;1.80;;
26516;SDS011;14190;51.342;6.338;2023-05-16T14:49:26;5.62;;;2.20;;
26516;SDS011;14190;51.342;6.338;2023-05-16T14:51:53;10.20;;;1.72;;
26516;SDS011;14190;51.342;6.338;2023-05-16T14:54:22;7.37;;;1.90;;
26516;SDS011;14190;51.342;6.338;2023-05-16T14:56:49;8.68;;;1.65;;
26516;SDS011;14190;51.342;6.338;2023-05-16T14:59:17;8.43;;;1.65;;
26516;SDS011;14190;51.342;6.338;2023-05-16T15:01:44;5.25;;;1.52;;
26516;SDS011;14190;51.342;6.338;2023-05-16T15:04:12;7.90;;;1.92;;